createdAt,value
2022-08-05T00:01:20.873Z,51.28
2022-08-05T00:04:00.188Z,51.63
2022-08-05T00:06:33.209Z,51.56
2022-08-05T00:09:20.256Z,50.70
2022-08-05T00:12:06.991Z,50.76
2022-08-05T00:14:51.718Z,50.32
2022-08-05T00:17:37.953Z,49.84
2022-08-05T00:20:29.101Z,50.41
2022-08-05T00:23:12.481Z,50.63
2022-08-05T00:25:46.139Z,50.48
2022-08-05T00:28:32.922Z,50.34
2022-08-05T00:31:12.914Z,49.99
2022-08-05T00:34:54.891Z,49.71
2022-08-05T00:37:09.800Z,49.42
2022-08-05T00:39:22.374Z,49.21
2022-08-05T00:41:55.521Z,49.54
2022-08-05T00:44:41.513Z,49.19
2022-08-05T00:47:08.860Z,49.24
2022-08-05T00:49:49.351Z,48.49
2022-08-05T00:52:28.534Z,48.64
2022-08-05T00:54:57.628Z,49.20
2022-08-05T00:57:38.222Z,49.09
2022-08-05T01:00:14.153Z,49.39
2022-08-05T01:02:44.403Z,48.89
2022-08-05T01:05:12.786Z,49.42
2022-08-05T01:08:40.576Z,49.38
2022-08-05T01:10:40.640Z,50.04
2022-08-05T01:13:58.788Z,49.84
2022-08-05T01:16:27.169Z,49.56
2022-08-05T01:19:03.878Z,49.41
2022-08-05T01:22:06.968Z,50.87
2022-08-05T01:25:01.696Z,51.05
2022-08-05T01:28:15.552Z,51.66
2022-08-05T01:30:53.765Z,51.11
2022-08-05T01:33:29.555Z,52.01
2022-08-05T01:36:16.293Z,51.66
2022-08-05T01:38:48.607Z,52.30
2022-08-05T01:41:22.514Z,52.09
2022-08-05T01:43:56.367Z,52.04
2022-08-05T01:46:42.668Z,52.11
2022-08-05T01:49:23.594Z,52.32
2022-08-05T01:51:58.747Z,51.87
2022-08-05T01:54:46.143Z,52.15
2022-08-05T01:58:10.131Z,52.43
2022-08-05T02:00:12.417Z,52.59
2022-08-05T02:02:53.577Z,52.81
2022-08-05T02:05:28.672Z,52.71
2022-08-05T02:08:01.352Z,51.92
2022-08-05T02:10:36.988Z,52.40
2022-08-05T02:13:17.533Z,52.51
2022-08-05T02:15:53.977Z,52.79
2022-08-05T02:18:34.842Z,52.91
2022-08-05T02:21:14.735Z,52.89
2022-08-05T02:23:48.523Z,53.67
2022-08-05T02:26:26.645Z,53.90
2022-08-05T02:28:56.486Z,53.54
2022-08-05T02:31:34.965Z,53.93
2022-08-05T02:34:09.342Z,53.58
2022-08-05T02:36:42.680Z,54.45
2022-08-05T02:39:12.976Z,54.30
2022-08-05T02:42:01.347Z,54.40
2022-08-05T02:44:32.462Z,54.56
2022-08-05T02:47:02.806Z,54.69
2022-08-05T02:49:40.325Z,54.82
2022-08-05T02:52:25.871Z,54.51
2022-08-05T02:55:01.876Z,54.24
2022-08-05T02:58:09.235Z,54.62
2022-08-05T03:00:21.677Z,54.68
2022-08-05T03:02:52.977Z,55.15
2022-08-05T03:05:21.872Z,54.69
2022-08-05T03:08:11.402Z,55.47
2022-08-05T03:10:42.112Z,55.24
2022-08-05T03:13:28.527Z,55.39
2022-08-05T03:16:16.227Z,55.22
2022-08-05T03:18:48.720Z,54.77
2022-08-05T03:21:16.242Z,55.15
2022-08-05T03:23:45.624Z,55.08
2022-08-05T03:26:31.367Z,54.96
2022-08-05T03:28:59.842Z,55.80
2022-08-05T03:31:55.608Z,55.57
2022-08-05T03:34:16.971Z,55.44
2022-08-05T03:36:44.347Z,55.48
2022-08-05T03:39:13.159Z,55.18
2022-08-05T03:41:47.747Z,55.46
2022-08-05T03:44:20.215Z,55.60
2022-08-05T03:46:47.839Z,55.43
2022-08-05T03:49:17.582Z,55.44
2022-08-05T03:52:38.331Z,55.45
2022-08-05T03:55:00.074Z,55.70
2022-08-05T03:57:44.670Z,55.66
2022-08-05T04:00:16.271Z,55.23
2022-08-05T04:02:57.660Z,55.28
2022-08-05T04:05:33.696Z,55.19
2022-08-05T04:08:05.872Z,55.22
2022-08-05T04:10:45.092Z,55.51
2022-08-05T04:13:13.031Z,55.99
2022-08-05T04:16:02.830Z,55.96
2022-08-05T04:18:28.864Z,55.70
2022-08-05T04:20:59.149Z,55.63
2022-08-05T04:24:05.104Z,55.93
2022-08-05T04:26:17.460Z,55.83
2022-08-05T04:28:50.817Z,55.90
2022-08-05T04:31:19.387Z,55.68
2022-08-05T04:34:18.549Z,55.42
2022-08-05T04:36:44.763Z,55.68
2022-08-05T04:39:17.483Z,55.94
2022-08-05T04:41:45.948Z,55.45
2022-08-05T04:44:20.993Z,55.24
2022-08-05T04:46:51.901Z,55.25
2022-08-05T04:49:24.754Z,55.37
2022-08-05T04:52:07.747Z,54.76
2022-08-05T04:54:35.195Z,54.94
2022-08-05T04:57:02.518Z,55.19
2022-08-05T04:59:38.934Z,54.57
2022-08-05T05:02:36.305Z,55.23
2022-08-05T05:05:01.837Z,55.08
2022-08-05T05:07:32.691Z,55.11
2022-08-05T05:10:06.460Z,55.00
2022-08-05T05:12:34.144Z,54.40
2022-08-05T05:15:10.781Z,54.39
2022-08-05T05:17:57.083Z,54.26
2022-08-05T05:20:28.747Z,54.65
2022-08-05T05:22:58.414Z,54.78
2022-08-05T05:25:40.432Z,54.91
2022-08-05T05:28:09.294Z,54.62
2022-08-05T05:30:36.996Z,54.50
2022-08-05T05:33:16.240Z,55.06
2022-08-05T05:35:45.857Z,55.23
2022-08-05T05:38:22.649Z,54.86
2022-08-05T05:40:55.844Z,54.72
2022-08-05T05:43:54.546Z,54.60
2022-08-05T05:46:15.776Z,54.53
2022-08-05T05:48:47.888Z,53.86
2022-08-05T05:51:21.197Z,53.98
2022-08-05T05:53:58.306Z,53.62
2022-08-05T05:56:32.307Z,54.03
2022-08-05T05:59:03.452Z,53.55
2022-08-05T06:01:37.382Z,53.74
2022-08-05T06:04:07.569Z,54.52
2022-08-05T06:06:35.543Z,54.26
2022-08-05T06:09:05.747Z,53.39
2022-08-05T06:11:35.342Z,53.80
2022-08-05T06:14:06.950Z,53.69
2022-08-05T06:16:37.202Z,52.97
2022-08-05T06:19:07.566Z,53.49
2022-08-05T06:21:38.709Z,53.68
2022-08-05T06:24:11.959Z,53.46
2022-08-05T06:26:51.478Z,53.74
2022-08-05T06:29:25.286Z,53.61
2022-08-05T06:32:21.220Z,54.04
2022-08-05T06:34:56.059Z,53.70
2022-08-05T06:37:52.276Z,53.50
2022-08-05T06:40:18.570Z,54.11
2022-08-05T06:42:51.991Z,53.61
2022-08-05T06:45:44.579Z,54.61
2022-08-05T06:48:36.207Z,54.14
2022-08-05T06:50:57.252Z,54.66
2022-08-05T06:53:28.230Z,54.61
2022-08-05T06:55:58.300Z,54.41
2022-08-05T06:58:35.023Z,54.17
2022-08-05T07:01:06.403Z,54.72
2022-08-05T07:03:34.915Z,54.00
2022-08-05T07:06:05.615Z,54.24
2022-08-05T07:08:42.708Z,53.75
2022-08-05T07:11:15.457Z,53.76
2022-08-05T07:14:01.619Z,53.77
2022-08-05T07:18:02.350Z,54.56
2022-08-05T07:22:28.504Z,54.23
2022-08-05T07:24:59.309Z,54.27
2022-08-05T07:27:58.852Z,54.64
2022-08-05T07:30:23.947Z,54.84
2022-08-05T07:32:55.655Z,53.97
2022-08-05T07:36:03.520Z,54.62
2022-08-05T07:38:32.803Z,54.52
2022-08-05T07:41:16.849Z,54.20
2022-08-05T07:43:50.554Z,54.27
2022-08-05T07:46:24.446Z,54.21
2022-08-05T07:49:01.973Z,54.84
2022-08-05T07:51:37.609Z,55.21
2022-08-05T07:54:10.549Z,54.67
2022-08-05T07:57:02.477Z,54.56
2022-08-05T07:59:38.271Z,54.65
2022-08-05T08:02:10.586Z,55.43
2022-08-05T08:04:47.407Z,55.57
2022-08-05T08:07:15.396Z,55.49
2022-08-05T08:09:43.624Z,54.97
2022-08-05T08:12:37.547Z,54.99
2022-08-05T08:15:13.823Z,55.23
2022-08-05T08:17:46.256Z,54.97
2022-08-05T08:20:43.383Z,54.98
2022-08-05T08:23:07.509Z,55.15
2022-08-05T08:25:59.898Z,55.53
2022-08-05T08:28:37.139Z,55.75
2022-08-05T08:31:17.333Z,56.35
2022-08-05T08:33:45.935Z,55.74
2022-08-05T08:36:38.939Z,56.52
2022-08-05T08:39:15.231Z,56.00
2022-08-05T08:41:52.563Z,56.24
2022-08-05T08:45:18.521Z,56.74
2022-08-05T08:48:06.356Z,56.58
2022-08-05T08:50:31.826Z,56.39
2022-08-05T08:53:12.455Z,56.81
2022-08-05T08:56:04.861Z,56.60
2022-08-05T08:58:43.523Z,56.96
2022-08-05T09:01:19.142Z,56.61
2022-08-05T09:03:54.386Z,56.99
2022-08-05T09:06:32.593Z,56.71
2022-08-05T09:09:04.684Z,56.73
2022-08-05T09:11:53.194Z,56.29
2022-08-05T09:14:56.816Z,56.98
2022-08-05T09:17:40.671Z,57.26
2022-08-05T09:20:08.353Z,57.09
2022-08-05T09:23:09.127Z,57.09
2022-08-05T09:26:01.504Z,55.49
2022-08-05T09:28:32.234Z,55.46
2022-08-05T09:31:23.483Z,55.23
2022-08-05T09:33:54.690Z,54.91
2022-08-05T09:36:55.106Z,54.63
2022-08-05T09:39:39.290Z,54.54
2022-08-05T09:42:23.517Z,54.31
2022-08-05T09:44:57.498Z,54.03
2022-08-05T09:47:49.115Z,54.15
2022-08-05T09:50:43.684Z,54.28
2022-08-05T09:53:12.065Z,54.49
2022-08-05T09:56:03.703Z,54.49
2022-08-05T09:58:36.935Z,54.31
2022-08-05T10:01:15.733Z,55.50
2022-08-05T10:04:03.559Z,55.07
2022-08-05T10:06:32.092Z,56.00
2022-08-05T10:09:25.101Z,55.71
2022-08-05T10:12:30.088Z,55.58
2022-08-05T10:15:17.212Z,55.11
2022-08-05T10:18:03.621Z,53.72
2022-08-05T10:20:33.089Z,54.18
2022-08-05T10:23:02.226Z,54.83
2022-08-05T10:25:32.699Z,54.16
2022-08-05T10:28:13.911Z,53.97
2022-08-05T10:32:54.908Z,55.10
2022-08-05T10:33:36.076Z,55.20
2022-08-05T10:36:05.876Z,55.55
2022-08-05T10:38:37.225Z,55.66
2022-08-05T10:41:23.275Z,55.11
2022-08-05T10:44:02.128Z,55.33
2022-08-05T10:46:50.563Z,55.65
2022-08-05T10:49:26.922Z,55.53
2022-08-05T10:52:03.315Z,55.40
2022-08-05T10:55:03.271Z,54.77
2022-08-05T10:57:34.125Z,54.38
2022-08-05T11:00:19.839Z,54.70
2022-08-05T11:03:24.981Z,54.82
2022-08-05T11:06:21.245Z,54.63
2022-08-05T11:09:24.408Z,53.66
2022-08-05T11:12:54.506Z,53.94
2022-08-05T11:15:59.465Z,54.15
2022-08-05T11:18:29.981Z,53.86
2022-08-05T11:20:59.630Z,54.19
2022-08-05T11:24:05.161Z,53.06
2022-08-05T11:26:33.284Z,52.94
2022-08-05T11:29:11.692Z,51.92
2022-08-05T11:31:54.138Z,51.46
2022-08-05T11:34:50.858Z,50.89
2022-08-05T11:38:29.525Z,51.28
2022-08-05T11:41:01.798Z,51.40
2022-08-05T11:44:04.575Z,50.73
2022-08-05T11:46:58.126Z,50.60
2022-08-05T11:49:39.385Z,49.91
2022-08-05T11:52:11.868Z,50.15
2022-08-05T11:54:41.804Z,49.54
2022-08-05T11:57:24.807Z,49.15
2022-08-05T11:59:54.198Z,49.46
2022-08-05T12:02:33.470Z,49.58
2022-08-05T12:05:07.101Z,48.57
2022-08-05T12:08:07.567Z,49.10
2022-08-05T12:10:43.037Z,47.75
2022-08-05T12:13:28.103Z,48.18
2022-08-05T12:16:14.879Z,48.25
2022-08-05T12:18:49.523Z,47.33
2022-08-05T12:21:24.305Z,45.85
2022-08-05T12:24:11.304Z,45.92
2022-08-05T12:26:43.979Z,45.94
2022-08-05T12:29:16.105Z,45.24
2022-08-05T12:31:53.821Z,44.96
2022-08-05T12:34:31.572Z,45.05
2022-08-05T12:37:10.485Z,44.07
2022-08-05T12:39:39.726Z,42.84
2022-08-05T12:42:16.680Z,41.24
2022-08-05T12:44:47.614Z,40.45
2022-08-05T12:47:27.257Z,40.82
2022-08-05T12:50:03.200Z,40.80
2022-08-05T12:52:39.396Z,40.99
2022-08-05T12:55:22.637Z,41.06
2022-08-05T12:58:50.751Z,40.64
2022-08-05T13:02:00.689Z,41.22
2022-08-05T13:03:33.155Z,41.66
2022-08-05T13:06:02.233Z,41.90
2022-08-05T13:08:32.439Z,41.51
2022-08-05T13:11:01.655Z,42.01
2022-08-05T13:14:05.756Z,41.55
2022-08-05T13:16:19.542Z,41.04
2022-08-05T13:18:58.390Z,41.51
2022-08-05T13:21:38.053Z,40.95
2022-08-05T13:24:27.699Z,41.52
2022-08-05T13:27:04.985Z,41.36
2022-08-05T13:29:38.388Z,40.06
2022-08-05T13:32:39.173Z,40.79
2022-08-05T13:35:10.227Z,41.05
2022-08-05T13:37:37.607Z,41.21
2022-08-05T13:40:16.210Z,40.83
2022-08-05T13:42:55.645Z,40.22
2022-08-05T13:45:23.136Z,39.89
2022-08-05T13:48:09.818Z,39.94
2022-08-05T13:50:47.773Z,40.34
2022-08-05T13:53:15.945Z,40.41
2022-08-05T13:55:50.259Z,40.25
2022-08-05T13:58:31.027Z,40.50
2022-08-05T14:00:59.677Z,40.81
2022-08-05T14:03:28.925Z,40.95
2022-08-05T14:06:25.949Z,41.59
2022-08-05T14:08:43.828Z,41.95
2022-08-05T14:11:21.038Z,41.40
2022-08-05T14:13:49.679Z,41.01
2022-08-05T14:16:22.813Z,41.14
2022-08-05T14:18:52.522Z,40.64
2022-08-05T14:22:08.114Z,40.88
2022-08-05T14:24:12.214Z,41.27
2022-08-05T14:26:51.479Z,40.81
2022-08-05T14:29:27.505Z,40.31
2022-08-05T14:32:12.374Z,39.94
2022-08-05T14:34:45.159Z,38.00
2022-08-05T14:37:14.104Z,35.85
2022-08-05T14:39:49.961Z,35.62
2022-08-05T14:42:25.000Z,35.53
2022-08-05T14:44:52.866Z,34.40
2022-08-05T14:48:02.442Z,33.85
2022-08-05T14:50:18.204Z,32.69
2022-08-05T14:52:53.467Z,33.28
2022-08-05T14:55:25.100Z,33.45
2022-08-05T14:57:54.552Z,33.66
2022-08-05T15:00:27.746Z,33.83
2022-08-05T15:02:56.307Z,33.65
2022-08-05T15:05:29.828Z,32.37
2022-08-05T15:08:18.054Z,31.90
2022-08-05T15:11:03.225Z,32.02
2022-08-05T15:13:45.862Z,31.92
2022-08-05T15:16:14.289Z,31.95
2022-08-05T15:18:41.940Z,30.65
2022-08-05T15:21:15.986Z,29.73
2022-08-05T15:23:49.052Z,30.15
2022-08-05T15:26:17.594Z,30.19
2022-08-05T15:28:59.885Z,30.46
2022-08-05T15:31:34.745Z,30.31
2022-08-05T15:34:19.025Z,30.70
2022-08-05T15:36:51.240Z,30.61
2022-08-05T15:40:59.541Z,30.73
2022-08-05T15:42:54.804Z,30.24
2022-08-05T15:44:55.015Z,30.73
2022-08-05T15:47:23.578Z,30.97
2022-08-05T15:49:56.950Z,30.92
2022-08-05T15:52:51.894Z,29.80
2022-08-05T15:55:16.570Z,29.58
2022-08-05T15:57:44.952Z,29.20
2022-08-05T16:00:16.688Z,29.36
2022-08-05T16:02:44.495Z,28.91
2022-08-05T16:05:12.144Z,28.67
2022-08-05T16:07:46.563Z,29.05
2022-08-05T16:10:16.495Z,29.02
2022-08-05T16:12:51.473Z,28.94
2022-08-05T16:15:21.689Z,29.07
2022-08-05T16:17:57.969Z,28.95
2022-08-05T16:20:25.639Z,29.05
2022-08-05T16:22:57.457Z,29.29
2022-08-05T16:25:32.167Z,29.55
2022-08-05T16:28:05.843Z,29.64
2022-08-05T16:30:36.131Z,29.18
2022-08-05T16:33:04.205Z,28.53
2022-08-05T16:35:33.535Z,28.37
2022-08-05T16:38:23.810Z,27.80
2022-08-05T16:40:51.668Z,27.20
2022-08-05T16:43:24.145Z,27.77
2022-08-05T16:46:07.178Z,27.73
2022-08-05T16:48:40.605Z,27.72
2022-08-05T16:51:10.215Z,28.20
2022-08-05T16:54:04.853Z,28.59
2022-08-05T16:56:29.744Z,28.89
2022-08-05T16:58:57.791Z,28.79
2022-08-05T17:01:25.422Z,29.14
2022-08-05T17:03:52.931Z,29.22
2022-08-05T17:06:20.869Z,29.30
2022-08-05T17:08:54.593Z,28.97
2022-08-05T17:11:23.765Z,29.24
2022-08-05T17:14:00.398Z,29.51
2022-08-05T17:16:35.971Z,29.21
2022-08-05T17:19:07.785Z,29.31
2022-08-05T17:21:39.694Z,29.22
2022-08-05T17:24:28.461Z,29.17
2022-08-05T17:26:58.530Z,29.55
2022-08-05T17:29:33.410Z,29.59
2022-08-05T17:32:08.449Z,29.99
2022-08-05T17:34:39.526Z,29.72
2022-08-05T17:37:16.903Z,30.61
2022-08-05T17:39:56.321Z,31.15
2022-08-05T17:42:31.897Z,31.74
2022-08-05T17:45:09.967Z,32.03
2022-08-05T17:47:53.439Z,31.63
2022-08-05T17:50:28.406Z,32.22
2022-08-05T17:52:59.515Z,32.21
2022-08-05T17:55:37.272Z,32.29
2022-08-05T17:58:09.907Z,32.64
2022-08-05T18:00:40.797Z,32.11
2022-08-05T18:03:28.081Z,31.91
2022-08-05T18:06:04.525Z,32.40
2022-08-05T18:08:33.328Z,32.60
2022-08-05T18:11:03.258Z,32.53
2022-08-05T18:13:36.937Z,32.07
2022-08-05T18:16:13.690Z,33.05
2022-08-05T18:18:41.678Z,33.16
2022-08-05T18:21:20.067Z,32.93
2022-08-05T18:23:50.155Z,33.51
2022-08-05T18:26:28.991Z,34.04
2022-08-05T18:28:57.945Z,33.66
2022-08-05T18:31:33.048Z,34.37
2022-08-05T18:34:06.138Z,34.09
2022-08-05T18:36:35.387Z,34.02
2022-08-05T18:39:04.020Z,34.63
2022-08-05T18:41:53.343Z,35.06
2022-08-05T18:44:35.032Z,34.83
2022-08-05T18:47:14.832Z,34.97
2022-08-05T18:50:00.531Z,34.71
2022-08-05T18:52:36.851Z,35.40
2022-08-05T18:55:10.611Z,35.49
2022-08-05T18:57:43.083Z,36.46
2022-08-05T19:00:20.626Z,36.17
2022-08-05T19:02:48.424Z,36.75
2022-08-05T19:06:12.179Z,36.17
2022-08-05T19:08:07.687Z,37.12
2022-08-05T19:10:41.049Z,36.77
2022-08-05T19:13:12.255Z,37.05
2022-08-05T19:15:58.350Z,37.29
2022-08-05T19:18:28.703Z,37.31
2022-08-05T19:20:56.640Z,37.69
2022-08-05T19:24:07.034Z,37.50
2022-08-05T19:26:11.904Z,37.46
2022-08-05T19:28:44.504Z,37.53
2022-08-05T19:31:13.767Z,37.38
2022-08-05T19:33:48.313Z,36.78
2022-08-05T19:36:25.158Z,36.68
2022-08-05T19:38:55.120Z,36.86
2022-08-05T19:41:58.504Z,36.69
2022-08-05T19:44:18.348Z,36.40
2022-08-05T19:46:46.443Z,36.55
2022-08-05T19:49:17.028Z,36.62
2022-08-05T19:52:08.710Z,36.56
2022-08-05T19:54:34.254Z,36.56
2022-08-05T19:57:08.441Z,36.86
2022-08-05T20:00:00.489Z,37.28
2022-08-05T20:02:31.446Z,38.05
2022-08-05T20:04:59.814Z,38.18
2022-08-05T20:07:47.528Z,38.37
2022-08-05T20:10:15.768Z,38.71
2022-08-05T20:12:47.910Z,39.07
2022-08-05T20:15:48.252Z,38.84
2022-08-05T20:18:10.709Z,38.87
2022-08-05T20:20:56.628Z,39.37
2022-08-05T20:23:38.768Z,39.52
2022-08-05T20:26:16.402Z,39.39
2022-08-05T20:28:46.057Z,39.31
2022-08-05T20:31:16.617Z,39.42
2022-08-05T20:33:44.986Z,39.31
2022-08-05T20:36:14.171Z,39.74
2022-08-05T20:38:53.628Z,39.54
2022-08-05T20:41:24.127Z,39.55
2022-08-05T20:43:59.824Z,39.82
2022-08-05T20:46:31.810Z,40.08
2022-08-05T20:48:59.222Z,40.16
2022-08-05T20:51:26.855Z,40.32
2022-08-05T20:53:56.760Z,40.37
2022-08-05T20:56:29.956Z,40.55
2022-08-05T20:59:11.275Z,40.54
2022-08-05T21:01:44.853Z,40.57
2022-08-05T21:04:12.553Z,40.88
2022-08-05T21:06:45.024Z,41.01
2022-08-05T21:09:14.285Z,41.03
2022-08-05T21:12:06.952Z,41.37
2022-08-05T21:14:34.785Z,41.48
2022-08-05T21:17:05.267Z,41.69
2022-08-05T21:19:47.122Z,41.64
2022-08-05T21:22:17.763Z,41.65
2022-08-05T21:24:51.965Z,41.62
2022-08-05T21:27:24.634Z,41.97
2022-08-05T21:29:52.288Z,42.07
2022-08-05T21:32:24.542Z,42.36
2022-08-05T21:35:08.906Z,42.39
2022-08-05T21:37:47.245Z,42.52
2022-08-05T21:40:21.848Z,42.46
2022-08-05T21:42:51.946Z,43.05
2022-08-05T21:45:24.989Z,42.58
2022-08-05T21:48:09.329Z,42.73
2022-08-05T21:50:37.328Z,42.71
2022-08-05T21:53:16.466Z,42.50
2022-08-05T21:56:06.211Z,42.60
2022-08-05T21:58:33.071Z,43.04
2022-08-05T22:01:00.739Z,43.02
2022-08-05T22:03:52.630Z,42.78
2022-08-05T22:06:22.769Z,42.88
2022-08-05T22:08:52.151Z,43.63
2022-08-05T22:11:35.054Z,43.76
2022-08-05T22:14:18.238Z,43.08
2022-08-05T22:16:53.036Z,43.71
2022-08-05T22:20:01.661Z,43.74
2022-08-05T22:22:13.070Z,43.65
2022-08-05T22:25:00.613Z,43.86
2022-08-05T22:28:08.359Z,44.14
2022-08-05T22:30:35.186Z,43.95
2022-08-05T22:33:03.925Z,44.27
2022-08-05T22:35:49.139Z,44.13
2022-08-05T22:38:17.011Z,43.92
2022-08-05T22:40:49.604Z,44.01
2022-08-05T22:43:37.451Z,44.33
2022-08-05T22:46:13.110Z,44.19
2022-08-05T22:48:42.077Z,44.34
2022-08-05T22:51:16.116Z,44.32
2022-08-05T22:53:50.455Z,44.34
2022-08-05T22:56:30.010Z,44.36
2022-08-05T22:59:00.093Z,44.75
2022-08-05T23:02:04.756Z,45.15
2022-08-05T23:04:18.755Z,45.03
2022-08-05T23:06:48.112Z,45.33
2022-08-05T23:09:27.652Z,45.52
2022-08-05T23:12:03.639Z,45.08
2022-08-05T23:14:32.283Z,45.43
2022-08-05T23:17:24.485Z,45.79
2022-08-05T23:20:02.605Z,45.39
2022-08-05T23:22:31.412Z,45.78
2022-08-05T23:25:00.500Z,45.82
2022-08-05T23:27:28.824Z,45.39
2022-08-05T23:30:11.109Z,45.10
2022-08-05T23:32:45.132Z,44.97
2022-08-05T23:35:12.930Z,45.16
2022-08-05T23:37:41.958Z,45.35
2022-08-05T23:40:11.722Z,45.05
2022-08-05T23:42:39.162Z,45.53
2022-08-05T23:45:15.879Z,44.93
2022-08-05T23:47:47.954Z,45.71
2022-08-05T23:50:17.072Z,45.61
2022-08-05T23:52:51.564Z,45.51
2022-08-05T23:55:21.371Z,45.57
2022-08-05T23:57:52.753Z,45.68
